West Lebanon, IN (47991)

6:05 AM EDT on August 31, 2014 (GMT -0400)
Warren County, IN | Change Station
CLOSE
Current Station
Personal Weather Station
Location: Attica, IN
Elevation: 615 ft
Nearby Weather Stations

Elev 615 ft 40.35 °N, 87.21 °W | Updated 4 minutes ago

Overcast
Overcast
70.5 °F
Feels Like 70.5 °F
N
0.0
Wind Variable Wind from ESE
Gusts 0.0 mph

Today
High -- | Low -- °F
--% Chance of Precip.
Yesterday
High -- | Low -- °F
Precip. -- in
7:16 AM 8:22 PM
Waxing Crescent, 29% visible
Pressure 29.94 in
Visibility 3.0 miles
Clouds Overcast 700 ft
Dew Point 70 °F
Humidity 99%
Rainfall 0.23 in
Snow Depth Not available.
UV 0 out of 12
Pollen 8.60 out of 12
Air Quality Not available.
Flu Activity Not available.
METAR KDNV 310955Z AUTO 21004KT 3SM -RA OVC007 21/21 A2994 RMK AO2 T02140210

More Conditions Fewer Conditions

Pressure 29.94 in
Visibility 3.0 miles
Clouds Overcast 700 ft
Dew Point 70 °F
Humidity 99%
Rainfall 0.23 in
Snow Depth Not available.
UV 0 out of 12
Pollen 8.60 out of 12
Air Quality Not available.
Flu Activity Not available.
METAR KDNV 310955Z AUTO 21004KT 3SM -RA OVC007 21/21 A2994 RMK AO2 T02140210

More Conditions Fewer Conditions

10-Day Weather Forecast

Almanac

Astronomy

Aug. 31, 2014 Rise Set
Actual Time 7:16 AM EDT 8:22 PM EDT
Civil Twilight 6:48 AM EDT 8:50 PM EDT
Nautical Twilight 6:14 AM EDT 9:24 PM EDT
Astronomical Twilight 5:39 AM EDT 9:58 PM EDT
Moon 1:02 PM EDT 11:36 PM EDT
Length of Visible Light 14h 02m
Length of Day
13h 06m
Tomorrow will be 2m 32s shorter.
Waxing Crescent, 29% of the Moon is Illuminated
Today
Waxing Crescent
Sep 2
First Quarter
Sep 8
Full
Sep 15
Last Quarter
Sep 24
New

Today's Extremes

State Highs State Lows

Community

WunderPhotos

Upload Photos

1,748,834 photos uploaded!

Nearby

Snow Depth

Station Depth Elevation
No new snow has been reported.

Earthquake Activity

City Distance Mag. Time & Date
No recent earthquake activity has been reported nearby.
Minimum magnitude displayed is 2.5.

Coastal Water Temperatures

Place Temperature
No Stations Reporting

Nearby Weather Stations